Time;durP1;ratioP1;P1;durP2;ratioP2;P2;SDS_P1;SDS_P2;PMS_P1;PMS_P2;Temp;Humidity;BMP_temperature;BMP_pressure;BME280_temperature;BME280_humidity;BME280_pressure;Samples;Min_cycle;Max_cycle;Signal;HPM_P1;HPM_P2
2022/11/17 00:01:57;;;;;;;43.03;25.20;;;;;;;;;;5005723;28;20041;-75
2022/11/17 00:04:29;;;;;;;42.10;25.02;;;;;;;;;;5006096;28;20558;-76
2022/11/17 00:06:56;;;;;;;41.20;25.80;;;;;;;;;;5019122;28;20046;-76
2022/11/17 00:09:22;;;;;;;41.65;24.63;;;;;;;;;;5002606;28;20030;-75
2022/11/17 00:14:51;;;;;;;37.75;23.90;;;;;;;;;;4938019;29;20046;-75
2022/11/17 00:17:16;;;;;;;39.50;24.88;;;;;;;;;;4992967;28;20038;-75
2022/11/17 00:22:30;;;;;;;47.85;26.67;;;;;;;;;;5007147;28;20029;-77
2022/11/17 00:24:56;;;;;;;41.95;26.15;;;;;;;;;;5006594;28;20168;-76
2022/11/17 00:27:22;;;;;;;43.47;26.77;;;;;;;;;;5001507;28;20034;-77
2022/11/17 00:30:07;;;;;;;46.85;26.55;;;;;;;;;;5008649;28;20079;-76
2022/11/17 00:35:17;;;;;;;36.83;24.52;;;;;;;;;;5004792;28;20034;-76
2022/11/17 00:38:14;;;;;;;38.30;22.85;;;;;;;;;;5009708;28;20061;-75
2022/11/17 00:40:29;;;;;;;39.33;23.60;;;;;;;;;;5007743;28;20052;-76
2022/11/17 00:42:55;;;;;;;36.28;22.45;;;;;;;;;;4999046;28;20092;-76
2022/11/17 00:45:20;;;;;;;38.42;22.73;;;;;;;;;;5007004;28;20030;-76
2022/11/17 00:47:47;;;;;;;35.85;22.15;;;;;;;;;;5003453;28;20033;-76
2022/11/17 00:50:13;;;;;;;34.60;22.80;;;;;;;;;;5006643;28;20026;-76
2022/11/17 00:52:39;;;;;;;39.40;23.10;;;;;;;;;;5008209;28;20464;-76
2022/11/17 00:55:05;;;;;;;35.78;23.40;;;;;;;;;;5008454;28;20552;-76
2022/11/17 00:57:31;;;;;;;35.22;22.25;;;;;;;;;;5006957;28;20087;-76
2022/11/17 00:59:57;;;;;;;36.17;21.52;;;;;;;;;;5003111;28;20132;-77
2022/11/17 01:02:23;;;;;;;32.53;20.33;;;;;;;;;;5007324;28;20053;-77
2022/11/17 01:04:49;;;;;;;33.17;20.45;;;;;;;;;;5003812;28;20037;-76
2022/11/17 01:07:16;;;;;;;30.05;19.30;;;;;;;;;;5001342;28;20065;-76
2022/11/17 01:09:42;;;;;;;33.22;19.50;;;;;;;;;;5009689;28;20198;-76
2022/11/17 01:12:07;;;;;;;27.45;17.33;;;;;;;;;;5005096;28;20033;-77
2022/11/17 01:14:33;;;;;;;34.75;19.40;;;;;;;;;;5001570;28;20041;-76
2022/11/17 01:17:01;;;;;;;31.60;17.88;;;;;;;;;;5002195;28;20037;-76
2022/11/17 01:19:27;;;;;;;30.60;18.45;;;;;;;;;;5008233;28;20046;-76
2022/11/17 01:21:53;;;;;;;27.67;17.80;;;;;;;;;;5009146;28;20104;-76
2022/11/17 01:24:20;;;;;;;30.25;18.08;;;;;;;;;;5003766;28;20034;-75
2022/11/17 01:26:50;;;;;;;28.10;17.65;;;;;;;;;;5006824;28;20069;-76
2022/11/17 01:29:17;;;;;;;26.02;17.80;;;;;;;;;;5002101;28;20037;-76
2022/11/17 01:31:48;;;;;;;29.52;17.75;;;;;;;;;;4997514;28;20070;-75
2022/11/17 01:34:14;;;;;;;29.80;18.13;;;;;;;;;;5006478;28;20026;-76
2022/11/17 01:39:28;;;;;;;34.47;20.10;;;;;;;;;;5001506;28;20040;-75
2022/11/17 01:41:54;;;;;;;36.03;20.55;;;;;;;;;;4998902;28;20034;-75
2022/11/17 01:44:35;;;;;;;32.38;20.42;;;;;;;;;;5003311;28;20034;-76
2022/11/17 01:47:12;;;;;;;32.50;19.80;;;;;;;;;;5004795;28;20034;-77
2022/11/17 01:49:39;;;;;;;29.45;19.20;;;;;;;;;;5002146;28;20053;-76
2022/11/17 01:52:09;;;;;;;30.15;19.42;;;;;;;;;;5003161;28;20514;-76
2022/11/17 01:54:39;;;;;;;31.25;18.48;;;;;;;;;;5006853;28;20041;-75
2022/11/17 01:57:26;;;;;;;27.30;17.70;;;;;;;;;;5001631;28;20518;-76
2022/11/17 01:59:58;;;;;;;30.83;19.20;;;;;;;;;;5000163;28;20571;-76
2022/11/17 02:02:24;;;;;;;30.60;18.98;;;;;;;;;;5009806;28;20124;-75
2022/11/17 02:05:01;;;;;;;33.00;20.15;;;;;;;;;;5005872;28;20429;-75
2022/11/17 02:07:30;;;;;;;39.17;22.30;;;;;;;;;;5009286;28;20392;-75
2022/11/17 02:09:57;;;;;;;37.53;21.33;;;;;;;;;;5007225;28;20391;-75
2022/11/17 02:12:26;;;;;;;35.00;22.92;;;;;;;;;;5008169;28;20120;-75
2022/11/17 02:14:53;;;;;;;40.20;24.92;;;;;;;;;;5007206;28;20021;-75
2022/11/17 02:17:22;;;;;;;32.88;20.92;;;;;;;;;;5006220;28;20484;-74
2022/11/17 02:20:26;;;;;;;33.72;19.80;;;;;;;;;;5009186;28;20137;-75
2022/11/17 02:23:21;;;;;;;31.05;19.27;;;;;;;;;;4991149;28;20037;-74
2022/11/17 02:26:05;;;;;;;25.92;16.52;;;;;;;;;;5006000;28;20045;-75
2022/11/17 02:28:36;;;;;;;24.45;15.15;;;;;;;;;;5004137;28;20581;-76
2022/11/17 02:31:14;;;;;;;24.58;11.90;;;;;;;;;;5008060;28;20033;-75
2022/11/17 02:33:49;;;;;;;22.98;11.63;;;;;;;;;;5016851;28;20101;-77
2022/11/17 02:36:15;;;;;;;16.08;10.98;;;;;;;;;;5007788;28;20038;-76
2022/11/17 02:38:53;;;;;;;17.05;11.38;;;;;;;;;;5010668;28;20503;-77
2022/11/17 02:41:50;;;;;;;15.30;10.90;;;;;;;;;;5011224;28;20523;-74
2022/11/17 02:44:40;;;;;;;19.10;11.25;;;;;;;;;;5009238;28;20408;-75
2022/11/17 02:47:13;;;;;;;14.45;10.48;;;;;;;;;;5011966;28;20505;-75
2022/11/17 02:49:46;;;;;;;17.97;11.17;;;;;;;;;;5009498;28;20128;-75
2022/11/17 02:52:13;;;;;;;17.38;10.70;;;;;;;;;;4999222;28;20635;-76
2022/11/17 02:54:39;;;;;;;19.13;10.63;;;;;;;;;;5013159;28;20019;-76
2022/11/17 02:57:25;;;;;;;15.35;10.13;;;;;;;;;;5005172;28;20038;-75
2022/11/17 02:59:52;;;;;;;17.45;10.68;;;;;;;;;;5011977;28;20032;-75
2022/11/17 03:02:32;;;;;;;20.08;11.65;;;;;;;;;;5003631;28;20491;-76
2022/11/17 03:05:21;;;;;;;23.40;13.77;;;;;;;;;;5007795;28;20479;-75
2022/11/17 03:08:11;;;;;;;20.73;12.32;;;;;;;;;;5006104;28;20069;-75
2022/11/17 03:10:57;;;;;;;19.35;10.90;;;;;;;;;;5007485;28;20038;-74
2022/11/17 03:13:36;;;;;;;17.10;11.35;;;;;;;;;;5009760;28;20077;-74
2022/11/17 03:16:05;;;;;;;19.70;12.23;;;;;;;;;;5009098;28;20030;-75
2022/11/17 03:19:01;;;;;;;18.92;11.90;;;;;;;;;;5009033;28;20148;-74
2022/11/17 03:21:59;;;;;;;15.90;10.75;;;;;;;;;;4981896;28;20054;-75
2022/11/17 03:24:29;;;;;;;17.70;10.70;;;;;;;;;;4959613;28;20568;-75
2022/11/17 03:27:20;;;;;;;18.85;10.95;;;;;;;;;;4969631;28;20038;-75
2022/11/17 03:29:51;;;;;;;20.08;11.23;;;;;;;;;;4967934;28;20872;-75
2022/11/17 03:32:18;;;;;;;17.65;11.15;;;;;;;;;;4969361;28;20492;-75
2022/11/17 03:34:49;;;;;;;16.13;10.77;;;;;;;;;;4968432;28;20557;-76
2022/11/17 03:37:19;;;;;;;18.02;11.48;;;;;;;;;;4967648;28;20026;-76
2022/11/17 03:39:51;;;;;;;16.00;10.35;;;;;;;;;;4963482;28;20034;-75
2022/11/17 03:42:26;;;;;;;15.82;11.70;;;;;;;;;;4969266;28;20807;-75
2022/11/17 03:44:58;;;;;;;19.70;12.55;;;;;;;;;;4965422;28;20031;-76
2022/11/17 03:47:26;;;;;;;19.55;12.13;;;;;;;;;;4968931;28;20051;-77
2022/11/17 03:49:59;;;;;;;19.88;13.07;;;;;;;;;;4967698;28;20026;-75
2022/11/17 03:52:28;;;;;;;21.58;14.45;;;;;;;;;;4964841;28;20046;-77
2022/11/17 03:54:54;;;;;;;20.85;13.80;;;;;;;;;;4971365;28;20440;-76
2022/11/17 03:57:32;;;;;;;26.35;15.70;;;;;;;;;;4981979;28;20038;-76
2022/11/17 04:00:05;;;;;;;23.27;14.25;;;;;;;;;;4964550;28;20038;-76
2022/11/17 04:02:42;;;;;;;19.70;13.13;;;;;;;;;;4966134;28;20119;-76
2022/11/17 04:05:09;;;;;;;18.95;12.40;;;;;;;;;;4972172;28;20520;-75
2022/11/17 04:07:40;;;;;;;20.15;13.18;;;;;;;;;;4972965;28;20031;-76
2022/11/17 04:10:08;;;;;;;20.98;12.98;;;;;;;;;;4965401;28;20078;-75
2022/11/17 04:18:03;;;;;;;20.02;14.38;;;;;;;;;;4972374;28;20050;-75
2022/11/17 04:20:35;;;;;;;22.77;13.18;;;;;;;;;;4980484;28;20049;-76
2022/11/17 04:23:08;;;;;;;;;;;;;;;;;;5011446;28;20051;-75
2022/11/17 04:28:36;;;;;;;25.60;15.95;;;;;;;;;;5026248;28;20591;-77
2022/11/17 04:31:05;;;;;;;28.08;17.52;;;;;;;;;;5006546;28;20574;-75
2022/11/17 04:33:31;;;;;;;25.98;16.35;;;;;;;;;;5009766;28;20049;-76
2022/11/17 04:35:57;;;;;;;22.98;15.57;;;;;;;;;;5006036;28;20108;-77
2022/11/17 04:38:23;;;;;;;25.17;16.10;;;;;;;;;;4999766;28;20053;-76
2022/11/17 04:43:35;;;;;;;35.60;19.73;;;;;;;;;;5007543;28;20034;-77
2022/11/17 04:46:01;;;;;;;31.55;17.40;;;;;;;;;;5008619;28;20042;-76
2022/11/17 04:48:27;;;;;;;30.63;17.60;;;;;;;;;;5006804;28;20492;-75
2022/11/17 04:50:56;;;;;;;36.90;19.52;;;;;;;;;;5009509;28;20049;-75
2022/11/17 04:53:23;;;;;;;30.80;19.42;;;;;;;;;;5022402;28;20045;-75
2022/11/17 04:55:50;;;;;;;34.80;19.65;;;;;;;;;;5007184;28;20038;-74
2022/11/17 04:58:16;;;;;;;39.70;19.90;;;;;;;;;;5011951;28;20127;-76
2022/11/17 05:00:42;;;;;;;28.23;17.70;;;;;;;;;;5006144;28;20030;-77
2022/11/17 05:03:08;;;;;;;29.37;17.43;;;;;;;;;;5007986;28;20455;-75
2022/11/17 05:05:34;;;;;;;29.50;17.20;;;;;;;;;;5007526;28;20049;-76
2022/11/17 05:08:00;;;;;;;42.40;25.48;;;;;;;;;;5008087;28;20052;-75
2022/11/17 05:13:20;;;;;;;33.75;20.58;;;;;;;;;;5006567;28;20096;-76
2022/11/17 05:18:42;;;;;;;37.28;21.17;;;;;;;;;;5009068;28;20030;-76
2022/11/17 05:21:10;;;;;;;40.42;26.13;;;;;;;;;;5008044;28;20057;-75
2022/11/17 05:23:54;;;;;;;28.42;18.02;;;;;;;;;;5011392;28;20029;-76
2022/11/17 05:26:24;;;;;;;32.35;18.02;;;;;;;;;;5007251;28;20055;-75
2022/11/17 05:28:50;;;;;;;26.38;17.45;;;;;;;;;;5008719;28;20396;-77
2022/11/17 05:31:16;;;;;;;31.65;16.98;;;;;;;;;;4990397;28;20070;-75
2022/11/17 05:33:43;;;;;;;25.10;15.93;;;;;;;;;;5007271;28;20029;-76
2022/11/17 05:36:09;;;;;;;28.23;16.35;;;;;;;;;;5007423;28;20036;-76
2022/11/17 05:38:35;;;;;;;25.67;15.27;;;;;;;;;;4992538;28;20021;-75
2022/11/17 05:41:01;;;;;;;26.65;14.82;;;;;;;;;;5009013;28;20040;-77
2022/11/17 05:43:27;;;;;;;29.80;15.88;;;;;;;;;;5007968;28;20029;-76
2022/11/17 05:45:53;;;;;;;21.60;13.77;;;;;;;;;;5005761;28;20034;-76
2022/11/17 05:48:19;;;;;;;25.05;14.70;;;;;;;;;;5007498;28;20040;-77
2022/11/17 05:50:45;;;;;;;24.55;15.50;;;;;;;;;;5012147;28;20033;-78
2022/11/17 05:53:11;;;;;;;25.52;16.67;;;;;;;;;;5011030;28;20026;-75
2022/11/17 05:55:37;;;;;;;27.05;16.10;;;;;;;;;;5008813;28;20033;-77
2022/11/17 05:58:11;;;;;;;26.45;15.30;;;;;;;;;;5009911;28;20099;-76
2022/11/17 06:00:38;;;;;;;;;;;;;;;;;;5003806;28;20045;-75
2022/11/17 06:03:14;;;;;;;24.92;15.30;;;;;;;;;;5007870;28;20067;-77
2022/11/17 06:05:41;;;;;;;26.60;15.70;;;;;;;;;;5003324;28;20064;-76
2022/11/17 06:08:08;;;;;;;23.98;14.55;;;;;;;;;;5006511;28;20030;-75
2022/11/17 06:10:34;;;;;;;25.98;15.00;;;;;;;;;;5000477;28;20041;-75
2022/11/17 06:13:00;;;;;;;24.25;15.90;;;;;;;;;;5006653;28;20480;-76
2022/11/17 06:15:26;;;;;;;27.58;18.33;;;;;;;;;;5004553;28;20105;-75
2022/11/17 06:18:02;;;;;;;29.83;15.35;;;;;;;;;;5001584;28;20022;-75
2022/11/17 06:20:37;;;;;;;28.42;16.85;;;;;;;;;;4999213;28;20050;-75
2022/11/17 06:23:05;;;;;;;26.67;16.23;;;;;;;;;;5003688;28;20038;-75
2022/11/17 06:25:33;;;;;;;25.90;16.52;;;;;;;;;;5004885;28;20026;-75
2022/11/17 06:28:03;;;;;;;25.02;15.35;;;;;;;;;;5005004;28;20041;-77
2022/11/17 06:30:30;;;;;;;21.95;13.57;;;;;;;;;;5001744;28;20040;-77
2022/11/17 06:32:57;;;;;;;21.27;13.35;;;;;;;;;;5003355;28;20041;-77
2022/11/17 06:35:24;;;;;;;24.05;13.35;;;;;;;;;;5019973;28;20037;-76
2022/11/17 06:37:50;;;;;;;25.45;14.40;;;;;;;;;;5010809;28;20034;-76
2022/11/17 06:40:16;;;;;;;23.65;12.75;;;;;;;;;;5006329;28;20088;-77
2022/11/17 06:45:27;;;;;;;25.00;14.63;;;;;;;;;;5005001;28;20046;-76
2022/11/17 06:47:53;;;;;;;23.15;13.77;;;;;;;;;;5007318;28;20080;-77
2022/11/17 06:50:19;;;;;;;20.30;13.30;;;;;;;;;;4999452;28;20030;-75
2022/11/17 06:52:45;;;;;;;23.17;13.15;;;;;;;;;;5011003;28;20129;-76
2022/11/17 06:55:11;;;;;;;21.90;12.48;;;;;;;;;;5008031;28;20041;-77
2022/11/17 06:57:38;;;;;;;21.40;12.45;;;;;;;;;;5002124;28;20467;-76
2022/11/17 07:00:05;;;;;;;22.63;13.30;;;;;;;;;;4980183;28;20045;-76
2022/11/17 07:02:31;;;;;;;20.70;13.68;;;;;;;;;;5011340;28;20109;-77
2022/11/17 07:04:57;;;;;;;39.45;15.88;;;;;;;;;;5013233;28;20088;-76
2022/11/17 07:07:24;;;;;;;38.95;17.05;;;;;;;;;;5014645;28;20030;-76
2022/11/17 07:09:50;;;;;;;31.65;14.35;;;;;;;;;;5014952;28;20046;-77
2022/11/17 07:12:16;;;;;;;23.65;12.82;;;;;;;;;;5012784;28;20033;-76
2022/11/17 07:14:42;;;;;;;62.22;16.17;;;;;;;;;;5011821;28;20108;-77
2022/11/17 07:17:12;;;;;;;24.67;13.48;;;;;;;;;;5011336;28;20476;-78
2022/11/17 07:19:39;;;;;;;26.50;13.25;;;;;;;;;;5012186;28;20054;-77
2022/11/17 07:22:05;;;;;;;26.17;12.25;;;;;;;;;;5011351;28;20088;-76
2022/11/17 07:24:31;;;;;;;23.13;11.85;;;;;;;;;;5011787;28;20384;-76
2022/11/17 07:26:57;;;;;;;20.92;11.77;;;;;;;;;;5015864;28;20049;-77
2022/11/17 07:29:24;;;;;;;39.40;13.88;;;;;;;;;;5015710;28;20395;-76
2022/11/17 07:31:50;;;;;;;22.05;9.93;;;;;;;;;;5013049;28;20030;-77
2022/11/17 07:34:16;;;;;;;18.17;10.00;;;;;;;;;;5013575;28;20112;-77
2022/11/17 07:36:42;;;;;;;25.77;9.90;;;;;;;;;;5013773;28;20098;-77
2022/11/17 07:39:08;;;;;;;26.98;9.93;;;;;;;;;;5014420;28;20091;-78
2022/11/17 07:41:33;;;;;;;21.17;10.45;;;;;;;;;;5014517;28;20068;-78
2022/11/17 07:44:01;;;;;;;18.27;11.60;;;;;;;;;;5014312;28;20118;-77
2022/11/17 07:46:27;;;;;;;25.67;10.77;;;;;;;;;;5014871;28;20053;-78
2022/11/17 07:48:54;;;;;;;18.95;11.10;;;;;;;;;;5015930;28;20550;-77
2022/11/17 07:51:20;;;;;;;23.17;9.85;;;;;;;;;;5011435;28;20080;-77
2022/11/17 07:53:47;;;;;;;34.63;11.98;;;;;;;;;;5012369;28;20034;-75
2022/11/17 07:56:14;;;;;;;32.47;10.98;;;;;;;;;;5008295;28;20492;-76
2022/11/17 07:58:40;;;;;;;36.00;11.65;;;;;;;;;;4995357;28;20438;-75
2022/11/17 08:01:14;;;;;;;28.70;12.48;;;;;;;;;;5007882;28;20025;-75
2022/11/17 08:03:42;;;;;;;46.97;13.57;;;;;;;;;;5011809;28;20033;-75
2022/11/17 08:06:08;;;;;;;49.80;14.50;;;;;;;;;;5009430;28;20026;-75
2022/11/17 08:08:35;;;;;;;37.58;13.20;;;;;;;;;;5013138;28;20029;-75
2022/11/17 08:11:03;;;;;;;25.13;12.20;;;;;;;;;;5008577;28;20377;-76
2022/11/17 08:13:31;;;;;;;22.38;12.25;;;;;;;;;;5013379;28;20030;-76
2022/11/17 08:16:00;;;;;;;22.70;12.20;;;;;;;;;;4996167;28;20344;-76
2022/11/17 08:18:27;;;;;;;40.88;13.93;;;;;;;;;;4998534;28;20026;-77
2022/11/17 08:21:05;;;;;;;30.38;12.98;;;;;;;;;;5014047;28;20878;-76
2022/11/17 08:23:31;;;;;;;20.98;12.18;;;;;;;;;;5016166;28;20034;-76
2022/11/17 08:26:04;;;;;;;29.83;13.93;;;;;;;;;;5013781;28;20056;-78
2022/11/17 08:28:30;;;;;;;34.53;15.18;;;;;;;;;;5011321;28;20034;-77
2022/11/17 08:30:56;;;;;;;35.33;14.70;;;;;;;;;;5013082;28;20045;-77
2022/11/17 08:33:24;;;;;;;35.63;16.42;;;;;;;;;;5013126;28;20042;-77
2022/11/17 08:35:50;;;;;;;52.25;15.35;;;;;;;;;;5009960;28;20018;-75
2022/11/17 08:38:17;;;;;;;30.27;13.63;;;;;;;;;;5013179;28;20052;-76
2022/11/17 08:40:44;;;;;;;51.60;15.73;;;;;;;;;;5011830;28;20076;-74
2022/11/17 08:43:11;;;;;;;41.75;16.13;;;;;;;;;;5008466;28;20034;-73
2022/11/17 08:45:37;;;;;;;45.78;16.50;;;;;;;;;;5013216;28;20025;-73
2022/11/17 08:48:03;;;;;;;22.58;14.32;;;;;;;;;;5011721;28;20044;-77
2022/11/17 08:50:29;;;;;;;34.85;14.98;;;;;;;;;;5008899;28;20502;-75
2022/11/17 08:52:55;;;;;;;32.10;15.02;;;;;;;;;;5012733;28;20026;-75
2022/11/17 08:55:21;;;;;;;35.28;15.50;;;;;;;;;;4993953;28;20227;-75
2022/11/17 08:57:47;;;;;;;29.13;14.85;;;;;;;;;;5013452;28;20028;-74
2022/11/17 09:00:15;;;;;;;29.30;16.25;;;;;;;;;;5004653;28;20049;-74
2022/11/17 09:02:41;;;;;;;26.90;13.80;;;;;;;;;;5011975;28;20387;-77
2022/11/17 09:05:07;;;;;;;26.55;13.80;;;;;;;;;;5009974;28;20030;-74
2022/11/17 09:07:34;;;;;;;36.60;14.45;;;;;;;;;;5011697;28;20495;-74
2022/11/17 09:10:01;;;;;;;49.55;15.85;;;;;;;;;;5012798;28;20033;-76
2022/11/17 09:12:28;;;;;;;29.92;14.38;;;;;;;;;;5003517;28;20029;-75
2022/11/17 09:14:54;;;;;;;25.27;14.30;;;;;;;;;;4992723;28;20481;-77
2022/11/17 09:17:20;;;;;;;36.38;15.00;;;;;;;;;;4993433;28;20030;-77
2022/11/17 09:19:47;;;;;;;20.80;11.48;;;;;;;;;;4995968;28;20062;-76
2022/11/17 09:22:12;;;;;;;26.35;13.10;;;;;;;;;;5028553;28;20045;-75
2022/11/17 09:24:39;;;;;;;24.02;10.05;;;;;;;;;;5013564;28;20452;-76
2022/11/17 09:27:05;;;;;;;31.27;10.82;;;;;;;;;;5013141;28;20112;-75
2022/11/17 09:29:31;;;;;;;14.77;9.15;;;;;;;;;;5011869;28;20049;-76
2022/11/17 09:31:57;;;;;;;14.95;7.72;;;;;;;;;;5012443;28;20022;-75
2022/11/17 09:34:23;;;;;;;17.45;10.55;;;;;;;;;;5028403;28;20041;-76
2022/11/17 09:36:50;;;;;;;18.00;11.60;;;;;;;;;;5011041;28;20434;-76
2022/11/17 09:39:18;;;;;;;20.60;12.05;;;;;;;;;;4963478;28;20044;-76
2022/11/17 09:41:51;;;;;;;30.90;18.60;;;;;;;;;;5011301;28;20030;-77
2022/11/17 09:44:39;;;;;;;39.92;22.00;;;;;;;;;;4998253;28;20034;-77
2022/11/17 09:47:25;;;;;;;49.70;22.08;;;;;;;;;;4991455;28;20034;-76
2022/11/17 09:49:53;;;;;;;28.15;16.17;;;;;;;;;;4991730;28;20038;-76
2022/11/17 09:52:42;;;;;;;34.97;15.95;;;;;;;;;;5008294;28;20033;-78
2022/11/17 09:55:21;;;;;;;28.27;15.13;;;;;;;;;;4993504;28;20042;-74
2022/11/17 09:58:00;;;;;;;17.13;11.15;;;;;;;;;;4993517;28;20058;-76
2022/11/17 10:00:27;;;;;;;17.02;7.72;;;;;;;;;;4992367;28;20035;-75
2022/11/17 10:02:54;;;;;;;20.27;9.25;;;;;;;;;;4992259;28;20026;-77
2022/11/17 10:05:31;;;;;;;15.43;8.93;;;;;;;;;;4993591;28;20115;-76
2022/11/17 10:08:12;;;;;;;16.52;10.25;;;;;;;;;;4994019;28;20038;-76
2022/11/17 10:10:49;;;;;;;18.00;10.52;;;;;;;;;;5002230;28;20046;-77
2022/11/17 10:13:24;;;;;;;14.57;9.82;;;;;;;;;;5013777;28;20069;-77
2022/11/17 10:16:04;;;;;;;18.45;9.05;;;;;;;;;;5014174;28;20030;-75
2022/11/17 10:18:36;;;;;;;17.63;8.82;;;;;;;;;;5010892;28;20093;-76
2022/11/17 10:21:05;;;;;;;17.77;9.07;;;;;;;;;;5027792;28;20068;-76
2022/11/17 10:23:54;;;;;;;14.57;9.50;;;;;;;;;;5005141;28;20030;-76
2022/11/17 10:26:21;;;;;;;17.13;9.30;;;;;;;;;;4993135;28;20112;-77
2022/11/17 10:29:15;;;;;;;14.20;9.07;;;;;;;;;;4992233;28;20106;-80
2022/11/17 10:31:54;;;;;;;22.98;9.35;;;;;;;;;;5005801;28;20289;-78
2022/11/17 10:34:40;;;;;;;14.55;8.70;;;;;;;;;;5011503;28;20026;-76
2022/11/17 10:37:12;;;;;;;12.48;7.85;;;;;;;;;;5012036;28;20099;-76
2022/11/17 10:39:40;;;;;;;15.48;9.13;;;;;;;;;;5011475;28;20057;-76
2022/11/17 10:42:29;;;;;;;15.23;8.68;;;;;;;;;;4994629;28;20065;-76
2022/11/17 10:45:01;;;;;;;25.80;11.05;;;;;;;;;;5011889;28;20530;-75
2022/11/17 10:47:39;;;;;;;17.90;9.33;;;;;;;;;;5012289;28;20034;-75
2022/11/17 10:50:31;;;;;;;17.98;10.18;;;;;;;;;;4994766;28;20061;-78
2022/11/17 10:53:21;;;;;;;15.35;9.30;;;;;;;;;;4993095;28;20034;-76
2022/11/17 10:55:54;;;;;;;10.27;6.82;;;;;;;;;;4992919;28;20045;-76
2022/11/17 10:58:27;;;;;;;18.55;7.85;;;;;;;;;;4993970;28;20137;-78
2022/11/17 11:01:13;;;;;;;15.05;7.88;;;;;;;;;;4996328;28;20034;-77
2022/11/17 11:03:49;;;;;;;19.05;7.70;;;;;;;;;;4997300;28;20065;-77
2022/11/17 11:06:21;;;;;;;18.45;7.70;;;;;;;;;;5015026;28;20042;-77
2022/11/17 11:08:58;;;;;;;14.80;7.13;;;;;;;;;;5014866;28;20038;-76
2022/11/17 11:11:42;;;;;;;11.90;6.40;;;;;;;;;;5016222;28;20040;-77
2022/11/17 11:14:19;;;;;;;16.30;7.70;;;;;;;;;;5010028;28;20057;-76
2022/11/17 11:16:49;;;;;;;20.33;7.50;;;;;;;;;;4995501;28;20403;-75
2022/11/17 11:19:19;;;;;;;16.08;7.30;;;;;;;;;;4996558;28;20042;-76
2022/11/17 11:22:03;;;;;;;16.65;7.82;;;;;;;;;;4995113;28;20108;-76
2022/11/17 11:24:58;;;;;;;13.05;6.68;;;;;;;;;;4995101;28;20049;-76
2022/11/17 11:28:05;;;;;;;16.73;7.15;;;;;;;;;;5003628;28;20049;-76
2022/11/17 11:31:07;;;;;;;10.43;6.05;;;;;;;;;;5014310;28;20037;-77
2022/11/17 11:33:46;;;;;;;12.40;6.25;;;;;;;;;;5011779;28;20488;-75
2022/11/17 11:36:31;;;;;;;10.70;7.53;;;;;;;;;;5014475;28;20483;-77
2022/11/17 11:39:08;;;;;;;10.63;6.78;;;;;;;;;;5014449;28;20042;-76
2022/11/17 11:41:56;;;;;;;19.30;5.80;;;;;;;;;;4994713;28;20251;-76
2022/11/17 11:44:30;;;;;;;12.65;7.55;;;;;;;;;;4994433;28;20578;-76
2022/11/17 11:47:23;;;;;;;12.45;5.82;;;;;;;;;;4994838;28;20129;-76
2022/11/17 11:49:55;;;;;;;14.27;7.65;;;;;;;;;;4994839;28;20034;-76
2022/11/17 11:52:26;;;;;;;12.57;5.70;;;;;;;;;;4995215;28;20377;-77
2022/11/17 11:54:57;;;;;;;8.30;5.15;;;;;;;;;;4995234;28;20042;-76
2022/11/17 11:57:39;;;;;;;11.85;5.65;;;;;;;;;;4995340;28;20042;-78
2022/11/17 12:00:14;;;;;;;12.98;5.28;;;;;;;;;;4996008;28;20045;-78
2022/11/17 12:03:14;;;;;;;15.10;6.82;;;;;;;;;;4994784;28;20042;-75
2022/11/17 12:05:55;;;;;;;16.33;6.43;;;;;;;;;;5000576;28;20042;-76
2022/11/17 12:08:35;;;;;;;15.07;5.93;;;;;;;;;;5012200;28;20045;-76
2022/11/17 12:13:58;;;;;;;9.73;5.18;;;;;;;;;;5014069;28;20025;-75
2022/11/17 12:16:32;;;;;;;12.90;6.03;;;;;;;;;;5013285;28;20036;-77
2022/11/17 12:18:58;;;;;;;14.57;6.03;;;;;;;;;;5015395;28;20450;-75
2022/11/17 12:21:26;;;;;;;11.77;6.78;;;;;;;;;;5014017;28;20073;-76
2022/11/17 12:24:15;;;;;;;10.32;6.53;;;;;;;;;;5015242;28;20506;-78
2022/11/17 12:26:42;;;;;;;10.27;6.05;;;;;;;;;;5015864;28;20112;-75
2022/11/17 12:29:20;;;;;;;12.50;6.47;;;;;;;;;;5014875;28;20034;-77
2022/11/17 12:31:54;;;;;;;14.52;6.65;;;;;;;;;;4998053;28;20042;-76
2022/11/17 12:34:24;;;;;;;14.32;6.45;;;;;;;;;;5015054;28;20108;-77
2022/11/17 12:37:20;;;;;;;13.60;7.13;;;;;;;;;;5013713;28;20108;-77
2022/11/17 12:40:10;;;;;;;13.05;7.53;;;;;;;;;;5009419;28;20104;-76
2022/11/17 12:42:56;;;;;;;14.80;7.32;;;;;;;;;;5014959;28;20044;-78
2022/11/17 12:45:22;;;;;;;18.23;7.45;;;;;;;;;;5014884;28;20038;-74
2022/11/17 12:47:48;;;;;;;13.88;7.18;;;;;;;;;;5014675;28;20448;-76
2022/11/17 12:50:20;;;;;;;11.30;7.25;;;;;;;;;;5013651;28;20026;-75
2022/11/17 12:53:07;;;;;;;30.33;13.82;;;;;;;;;;5014963;28;20116;-77
2022/11/17 12:55:33;;;;;;;19.20;10.68;;;;;;;;;;5013055;28;20038;-76
2022/11/17 12:58:15;;;;;;;16.95;8.48;;;;;;;;;;5014362;28;20446;-76
2022/11/17 13:01:11;;;;;;;12.20;8.10;;;;;;;;;;5014289;28;20053;-76
2022/11/17 13:03:48;;;;;;;14.88;8.48;;;;;;;;;;4961057;28;20531;-76
2022/11/17 13:06:15;;;;;;;18.17;8.43;;;;;;;;;;5014113;28;20041;-74
2022/11/17 13:08:58;;;;;;;17.67;8.63;;;;;;;;;;5012575;28;20053;-77
2022/11/17 13:11:25;;;;;;;26.52;11.02;;;;;;;;;;5013198;28;20076;-75
2022/11/17 13:14:21;;;;;;;20.67;11.52;;;;;;;;;;5012831;28;20026;-74
2022/11/17 13:16:49;;;;;;;21.17;9.80;;;;;;;;;;5000983;28;20099;-75
2022/11/17 13:19:35;;;;;;;14.52;9.07;;;;;;;;;;5013928;28;20022;-74
2022/11/17 13:22:14;;;;;;;17.52;8.93;;;;;;;;;;4992549;28;20046;-76
2022/11/17 13:24:45;;;;;;;18.95;9.80;;;;;;;;;;4993301;28;20042;-76
2022/11/17 13:27:30;;;;;;;15.00;9.57;;;;;;;;;;4994338;28;20034;-76
2022/11/17 13:30:29;;;;;;;20.33;10.18;;;;;;;;;;4992905;28;20081;-75
2022/11/17 13:32:58;;;;;;;20.83;10.52;;;;;;;;;;4994105;28;20092;-75
2022/11/17 13:35:28;;;;;;;20.35;10.90;;;;;;;;;;4993829;28;20026;-76
2022/11/17 13:38:14;;;;;;;22.00;10.48;;;;;;;;;;4990994;28;20085;-76
2022/11/17 13:40:41;;;;;;;19.80;12.60;;;;;;;;;;4992587;28;20034;-73
2022/11/17 13:43:12;;;;;;;21.95;12.88;;;;;;;;;;4993203;28;20472;-75
2022/11/17 13:45:39;;;;;;;35.85;16.45;;;;;;;;;;4991253;28;20485;-75
2022/11/17 13:48:05;;;;;;;24.45;14.75;;;;;;;;;;4975924;28;20464;-75
2022/11/17 13:50:34;;;;;;;28.40;16.63;;;;;;;;;;4993402;28;20061;-77
2022/11/17 13:53:25;;;;;;;34.50;18.02;;;;;;;;;;4993749;28;20030;-75
2022/11/17 13:55:52;;;;;;;29.25;18.38;;;;;;;;;;4992882;28;20399;-74
2022/11/17 13:58:38;;;;;;;28.10;19.98;;;;;;;;;;4994428;28;20018;-73
2022/11/17 14:01:04;;;;;;;33.72;19.95;;;;;;;;;;4992788;28;20034;-76
2022/11/17 14:03:41;;;;;;;37.42;21.42;;;;;;;;;;4992980;28;20034;-75
2022/11/17 14:06:12;;;;;;;38.40;22.20;;;;;;;;;;4974696;28;20026;-75
2022/11/17 14:08:42;;;;;;;31.85;20.65;;;;;;;;;;4991033;28;20034;-75
2022/11/17 14:11:11;;;;;;;37.55;23.80;;;;;;;;;;4993265;28;20117;-77
2022/11/17 14:13:40;;;;;;;36.90;22.23;;;;;;;;;;4989367;28;20054;-77
2022/11/17 14:16:18;;;;;;;35.47;21.60;;;;;;;;;;4992022;28;20480;-77
2022/11/17 14:18:58;;;;;;;34.97;20.85;;;;;;;;;;4991176;28;20030;-76
2022/11/17 14:21:24;;;;;;;35.15;20.85;;;;;;;;;;5007910;28;20079;-77
2022/11/17 14:24:00;;;;;;;42.08;24.88;;;;;;;;;;5009451;28;20053;-77
2022/11/17 14:26:26;;;;;;;41.25;23.00;;;;;;;;;;5011673;28;20030;-76
2022/11/17 14:28:52;;;;;;;39.78;22.55;;;;;;;;;;5011542;28;20025;-77
2022/11/17 14:31:18;;;;;;;41.28;20.85;;;;;;;;;;4995888;28;20030;-75
2022/11/17 14:33:44;;;;;;;46.10;19.92;;;;;;;;;;5011563;28;20022;-76
2022/11/17 14:36:13;;;;;;;52.35;19.83;;;;;;;;;;5013605;28;20030;-78
2022/11/17 14:38:39;;;;;;;33.80;18.58;;;;;;;;;;5011882;28;20618;-77
2022/11/17 14:41:05;;;;;;;29.35;16.55;;;;;;;;;;5011701;28;20041;-76
2022/11/17 14:43:31;;;;;;;27.67;17.40;;;;;;;;;;4975955;28;20022;-77
2022/11/17 14:45:57;;;;;;;29.75;15.73;;;;;;;;;;5007348;28;20033;-76
2022/11/17 14:48:23;;;;;;;27.55;17.08;;;;;;;;;;5009472;28;20703;-77
2022/11/17 14:50:55;;;;;;;36.42;18.95;;;;;;;;;;5007503;28;20034;-76
2022/11/17 14:53:22;;;;;;;28.60;16.52;;;;;;;;;;5007137;28;20030;-77
2022/11/17 14:55:48;;;;;;;41.10;18.00;;;;;;;;;;4991365;28;20448;-77
2022/11/17 14:58:14;;;;;;;29.08;17.58;;;;;;;;;;5009421;28;20133;-77
2022/11/17 15:00:40;;;;;;;34.28;14.95;;;;;;;;;;5009790;28;20113;-78
2022/11/17 15:03:06;;;;;;;23.63;11.32;;;;;;;;;;5009869;28;20026;-76
2022/11/17 15:05:32;;;;;;;22.40;11.07;;;;;;;;;;5011887;28;20049;-76
2022/11/17 15:07:58;;;;;;;17.15;9.68;;;;;;;;;;5012610;28;20079;-77
2022/11/17 15:10:24;;;;;;;24.83;12.38;;;;;;;;;;5011191;28;20026;-76
2022/11/17 15:12:51;;;;;;;18.88;9.88;;;;;;;;;;5012746;28;20069;-77
2022/11/17 15:15:17;;;;;;;14.02;7.25;;;;;;;;;;5012820;28;20360;-76
2022/11/17 15:17:43;;;;;;;15.90;7.03;;;;;;;;;;5012707;28;20034;-76
2022/11/17 15:20:09;;;;;;;11.95;7.47;;;;;;;;;;5010726;28;20585;-75
2022/11/17 15:22:36;;;;;;;13.95;6.68;;;;;;;;;;5012719;28;20522;-76